Time;durP1;ratioP1;P1;durP2;ratioP2;P2;SDS_P1;SDS_P2;PMS_P1;PMS_P2;Temp;Humidity;BMP_temperature;BMP_pressure;BME280_temperature;BME280_humidity;BME280_pressure;Samples;Min_cycle;Max_cycle;Signal;HPM_P1;HPM_P2
2022/03/11 00:00:48;;;;;;;18.02;14.98;;;7.20;99.90;;;;;;5065816;28;20108;-76
2022/03/11 00:03:18;;;;;;;18.55;14.57;;;7.20;99.90;;;;;;5051826;28;20017;-74
2022/03/11 00:05:44;;;;;;;16.02;12.25;;;7.20;99.90;;;;;;5050583;28;20048;-74
2022/03/11 00:08:10;;;;;;;20.33;14.15;;;7.20;99.90;;;;;;5051931;28;20025;-73
2022/03/11 00:10:36;;;;;;;17.42;11.63;;;7.20;99.90;;;;;;5052078;28;20025;-77
2022/03/11 00:13:02;;;;;;;17.13;13.75;;;7.20;99.90;;;;;;5050259;28;20462;-72
2022/03/11 00:15:27;;;;;;;17.10;14.43;;;7.20;99.90;;;;;;5050186;28;20054;-73
2022/03/11 00:17:53;;;;;;;24.52;15.93;;;7.20;99.90;;;;;;5050414;28;20033;-74
2022/03/11 00:20:20;;;;;;;20.67;14.65;;;7.10;99.90;;;;;;5051794;28;20375;-75
2022/03/11 00:22:50;;;;;;;15.40;12.52;;;7.10;99.90;;;;;;5051697;28;20025;-76
2022/03/11 00:25:18;;;;;;;17.55;13.20;;;7.10;99.90;;;;;;5050100;28;20105;-74
2022/03/11 00:27:44;;;;;;;22.90;11.85;;;7.10;99.90;;;;;;5050575;28;20025;-75
2022/03/11 00:30:10;;;;;;;17.73;13.52;;;7.10;99.90;;;;;;5051583;28;20023;-77
2022/03/11 00:32:38;;;;;;;21.67;13.45;;;7.20;99.90;;;;;;5050807;28;20110;-75
2022/03/11 00:35:08;;;;;;;18.27;11.25;;;7.10;99.90;;;;;;5063323;28;20356;-73
2022/03/11 00:37:37;;;;;;;15.70;12.52;;;7.10;99.90;;;;;;5051387;28;20033;-74
2022/03/11 00:40:04;;;;;;;24.10;14.07;;;7.10;99.90;;;;;;5049602;28;20091;-74
2022/03/11 00:42:30;;;;;;;16.75;13.43;;;7.10;99.90;;;;;;5051179;28;20021;-75
2022/03/11 00:45:08;;;;;;;19.40;11.90;;;7.10;99.90;;;;;;5052925;28;20440;-73
2022/03/11 00:47:56;;;;;;;21.23;13.70;;;7.10;99.90;;;;;;5050872;28;20087;-74
2022/03/11 00:50:24;;;;;;;12.15;9.45;;;7.10;99.90;;;;;;5050795;28;20032;-74
2022/03/11 00:52:51;;;;;;;15.32;12.65;;;7.10;99.90;;;;;;5045749;28;20076;-73
2022/03/11 00:55:17;;;;;;;19.00;12.48;;;7.00;99.90;;;;;;5050408;28;20048;-74
2022/03/11 00:57:43;;;;;;;21.73;12.38;;;7.00;99.90;;;;;;5049912;28;20020;-72
2022/03/11 01:00:10;;;;;;;16.42;13.13;;;7.00;99.90;;;;;;5051097;28;20172;-72
2022/03/11 01:02:37;;;;;;;15.32;11.30;;;7.00;99.90;;;;;;5050006;28;20025;-73
2022/03/11 01:05:04;;;;;;;16.42;12.27;;;7.00;99.90;;;;;;5050144;28;20028;-73
2022/03/11 01:07:31;;;;;;;20.25;14.25;;;6.90;99.90;;;;;;5050217;28;20078;-73
2022/03/11 01:09:56;;;;;;;19.17;12.63;;;6.90;99.90;;;;;;5051165;28;20104;-73
2022/03/11 01:12:22;;;;;;;17.02;12.77;;;6.90;99.90;;;;;;5050046;28;20511;-72
2022/03/11 01:14:48;;;;;;;13.30;9.82;;;6.90;99.90;;;;;;5051371;28;20029;-74
2022/03/11 01:17:13;;;;;;;18.58;11.57;;;6.90;99.90;;;;;;5049980;28;20118;-73
2022/03/11 01:19:40;;;;;;;17.48;11.20;;;6.90;99.90;;;;;;5049887;28;20093;-73
2022/03/11 01:22:06;;;;;;;16.30;11.80;;;6.90;99.90;;;;;;5049788;28;20025;-74
2022/03/11 01:24:32;;;;;;;17.80;13.25;;;6.90;99.90;;;;;;5050912;28;20025;-73
2022/03/11 01:26:58;;;;;;;15.63;12.85;;;6.90;99.90;;;;;;5049606;28;20391;-75
2022/03/11 01:29:24;;;;;;;18.83;11.93;;;6.80;99.90;;;;;;5050566;28;20031;-73
2022/03/11 01:31:53;;;;;;;12.15;9.35;;;6.90;99.90;;;;;;5050692;28;20024;-74
2022/03/11 01:34:20;;;;;;;20.55;11.52;;;6.90;99.90;;;;;;5049894;28;20088;-74
2022/03/11 01:36:46;;;;;;;16.23;12.10;;;6.90;99.90;;;;;;5049803;28;20166;-73
2022/03/11 01:39:12;;;;;;;15.40;12.60;;;6.80;99.90;;;;;;5051121;28;20025;-74
2022/03/11 01:41:38;;;;;;;21.35;11.68;;;6.80;99.90;;;;;;5050940;28;20025;-74
2022/03/11 01:44:07;;;;;;;21.15;10.98;;;6.80;99.90;;;;;;5050782;28;20426;-73
2022/03/11 01:46:33;;;;;;;16.30;11.32;;;6.80;99.90;;;;;;5050601;28;20021;-74
2022/03/11 01:49:01;;;;;;;19.08;12.60;;;6.80;99.90;;;;;;5047814;28;20491;-73
2022/03/11 01:51:27;;;;;;;16.85;12.32;;;6.80;99.90;;;;;;5043031;28;20040;-72
2022/03/11 01:53:54;;;;;;;21.92;11.07;;;6.80;99.90;;;;;;5048358;28;20036;-73
2022/03/11 01:56:21;;;;;;;17.30;11.65;;;6.80;99.90;;;;;;5043938;28;20029;-73
2022/03/11 01:58:56;;;;;;;13.13;9.05;;;6.80;99.90;;;;;;5039708;28;20028;-74
2022/03/11 02:01:25;;;;;;;15.73;11.65;;;6.80;99.90;;;;;;5048821;28;20028;-76
2022/03/11 02:03:59;;;;;;;15.25;11.93;;;6.80;99.90;;;;;;5048755;28;20028;-76
2022/03/11 02:06:26;;;;;;;14.18;10.70;;;6.80;99.90;;;;;;5049162;28;20025;-75
2022/03/11 02:08:58;;;;;;;16.83;11.80;;;6.80;99.90;;;;;;5043127;28;21292;-75
2022/03/11 02:11:27;;;;;;;17.77;12.25;;;6.80;99.90;;;;;;5042989;28;20079;-74
2022/03/11 02:13:58;;;;;;;19.38;11.23;;;6.80;99.90;;;;;;5048065;28;20040;-73
2022/03/11 02:16:39;;;;;;;15.98;11.93;;;6.80;99.90;;;;;;5050067;28;20036;-73
2022/03/11 02:19:06;;;;;;;16.15;11.32;;;6.80;99.90;;;;;;5051277;28;20325;-75
2022/03/11 02:21:43;;;;;;;15.80;12.50;;;6.70;99.90;;;;;;5051511;28;20077;-73
2022/03/11 02:24:10;;;;;;;13.50;10.85;;;6.70;99.90;;;;;;5050318;28;20078;-75
2022/03/11 02:26:36;;;;;;;21.50;10.60;;;6.70;99.90;;;;;;5042948;28;20529;-75
2022/03/11 02:29:03;;;;;;;15.27;11.73;;;6.70;99.90;;;;;;5042425;28;20033;-74
2022/03/11 02:31:30;;;;;;;15.52;12.02;;;6.70;99.90;;;;;;5039817;28;20056;-75
2022/03/11 02:33:58;;;;;;;13.73;12.27;;;6.70;99.90;;;;;;5041726;28;20106;-73
2022/03/11 02:36:25;;;;;;;15.63;12.20;;;6.70;99.90;;;;;;5040326;28;20029;-74
2022/03/11 02:38:51;;;;;;;11.48;9.77;;;6.70;99.90;;;;;;5043948;28;20033;-74
2022/03/11 02:41:17;;;;;;;15.48;11.23;;;6.70;99.90;;;;;;5042984;28;20048;-74
2022/03/11 02:43:43;;;;;;;16.95;12.60;;;6.70;99.90;;;;;;5045944;28;20071;-77
2022/03/11 02:46:10;;;;;;;17.88;11.52;;;6.70;99.90;;;;;;5040913;28;20031;-76
2022/03/11 02:48:36;;;;;;;15.30;11.77;;;6.80;99.90;;;;;;5046653;28;20057;-73
2022/03/11 02:51:02;;;;;;;17.30;13.10;;;6.70;99.90;;;;;;5042222;28;20452;-72
2022/03/11 02:53:27;;;;;;;21.20;13.00;;;6.70;99.90;;;;;;5041794;28;20057;-74
2022/03/11 02:55:53;;;;;;;15.25;10.15;;;6.70;99.90;;;;;;5045509;28;20028;-74
2022/03/11 02:58:19;;;;;;;15.23;12.23;;;6.70;99.90;;;;;;5044891;28;20398;-73
2022/03/11 03:00:46;;;;;;;20.27;12.70;;;6.70;99.90;;;;;;5041511;28;20021;-76
2022/03/11 03:03:12;;;;;;;16.63;12.02;;;6.60;99.90;;;;;;5044990;28;20110;-73
2022/03/11 03:05:37;;;;;;;14.32;10.18;;;6.70;99.90;;;;;;5042079;28;20048;-75
2022/03/11 03:08:04;;;;;;;22.77;11.93;;;6.70;99.90;;;;;;5037030;28;20025;-77
2022/03/11 03:10:29;;;;;;;24.00;12.52;;;6.60;99.90;;;;;;5041824;28;20041;-72
2022/03/11 03:12:55;;;;;;;16.77;12.32;;;6.60;99.90;;;;;;5043873;28;20411;-75
2022/03/11 03:15:21;;;;;;;15.65;13.15;;;6.60;99.90;;;;;;5041115;28;20048;-73
2022/03/11 03:17:47;;;;;;;16.98;12.35;;;6.70;99.90;;;;;;5038944;28;20112;-73
2022/03/11 03:20:13;;;;;;;14.98;11.68;;;6.70;99.90;;;;;;5043033;28;20567;-73
2022/03/11 03:22:39;;;;;;;15.05;11.77;;;6.70;99.90;;;;;;5037536;28;20487;-73
2022/03/11 03:25:06;;;;;;;17.63;12.50;;;6.70;99.90;;;;;;5041628;28;20052;-74
2022/03/11 03:27:31;;;;;;;18.95;12.43;;;6.70;99.90;;;;;;5036090;28;20026;-73
2022/03/11 03:29:57;;;;;;;13.20;9.77;;;6.70;99.90;;;;;;5040115;28;20028;-74
2022/03/11 03:32:23;;;;;;;14.80;11.55;;;6.60;99.90;;;;;;5043751;28;20025;-75
2022/03/11 03:34:49;;;;;;;14.95;11.95;;;6.70;99.90;;;;;;5039174;28;20394;-74
2022/03/11 03:37:15;;;;;;;14.43;12.00;;;6.70;99.90;;;;;;5039311;28;20840;-74
2022/03/11 03:39:41;;;;;;;11.52;9.10;;;6.80;99.90;;;;;;5034242;28;20124;-76
2022/03/11 03:42:08;;;;;;;15.77;11.57;;;6.80;99.90;;;;;;5041331;28;20274;-72
2022/03/11 03:44:34;;;;;;;17.52;12.27;;;6.80;99.90;;;;;;5046286;28;20497;-73
2022/03/11 03:47:00;;;;;;;13.95;11.63;;;6.80;99.90;;;;;;5041857;28;20027;-74
2022/03/11 03:49:28;;;;;;;19.85;12.77;;;6.90;99.90;;;;;;5042839;28;20124;-72
2022/03/11 03:51:53;;;;;;;13.70;10.38;;;6.90;99.90;;;;;;5047004;28;20395;-73
2022/03/11 03:54:19;;;;;;;19.50;11.20;;;6.90;99.90;;;;;;5045019;28;20025;-73
2022/03/11 03:56:45;;;;;;;16.08;12.10;;;6.90;99.90;;;;;;5045580;28;20071;-74
2022/03/11 03:59:13;;;;;;;16.13;11.20;;;6.90;99.90;;;;;;5045573;28;20021;-73
2022/03/11 04:01:40;;;;;;;16.13;10.77;;;7.00;99.90;;;;;;5040548;28;20045;-75
2022/03/11 04:04:08;;;;;;;16.83;11.48;;;6.90;99.90;;;;;;5045318;28;20089;-73
2022/03/11 04:06:35;;;;;;;16.40;11.50;;;6.90;99.90;;;;;;5044599;28;20521;-72
2022/03/11 04:09:03;;;;;;;16.38;11.13;;;7.00;99.90;;;;;;5043259;28;20079;-76
2022/03/11 04:11:29;;;;;;;14.40;8.20;;;6.90;99.90;;;;;;5044663;28;20022;-75
2022/03/11 04:13:56;;;;;;;13.80;10.35;;;6.90;99.90;;;;;;5046626;28;20163;-73
2022/03/11 04:16:22;;;;;;;21.05;8.65;;;6.80;99.90;;;;;;5049571;28;20056;-73
2022/03/11 04:18:49;;;;;;;15.23;12.07;;;6.80;99.90;;;;;;5043905;28;20119;-73
2022/03/11 04:21:16;;;;;;;13.75;9.80;;;6.80;99.90;;;;;;5044071;28;20060;-72
2022/03/11 04:23:43;;;;;;;20.92;11.82;;;6.70;99.90;;;;;;5038501;28;20033;-74
2022/03/11 04:26:09;;;;;;;14.57;10.00;;;6.70;99.90;;;;;;5043128;28;20036;-73
2022/03/11 04:28:36;;;;;;;12.05;7.18;;;6.70;99.90;;;;;;5046119;28;20475;-73
2022/03/11 04:31:03;;;;;;;13.88;9.98;;;6.70;99.90;;;;;;5040302;28;20044;-76
2022/03/11 04:33:29;;;;;;;10.55;8.15;;;6.70;99.90;;;;;;5043481;28;20163;-73
2022/03/11 04:35:55;;;;;;;15.25;10.52;;;6.80;99.90;;;;;;5043385;28;20154;-73
2022/03/11 04:38:21;;;;;;;20.00;11.07;;;6.70;99.90;;;;;;5044613;28;20407;-73
2022/03/11 04:40:47;;;;;;;19.33;11.52;;;6.70;99.90;;;;;;5042597;28;20028;-74
2022/03/11 04:43:13;;;;;;;13.88;10.73;;;6.70;99.90;;;;;;5041484;28;20135;-73
2022/03/11 04:45:39;;;;;;;14.70;10.57;;;6.70;99.90;;;;;;5045113;28;20017;-73
2022/03/11 04:48:06;;;;;;;15.07;11.32;;;6.70;99.90;;;;;;5043777;28;20025;-77
2022/03/11 04:50:32;;;;;;;12.60;8.85;;;6.70;99.90;;;;;;5046053;28;20021;-76
2022/03/11 04:53:04;;;;;;;15.13;9.30;;;6.80;99.90;;;;;;5042163;28;20060;-74
2022/03/11 04:55:31;;;;;;;13.02;9.82;;;6.80;99.90;;;;;;5059286;28;20036;-74
2022/03/11 04:57:59;;;;;;;18.40;9.38;;;6.80;99.90;;;;;;5043807;28;20036;-74
2022/03/11 05:00:25;;;;;;;11.38;7.57;;;6.80;99.90;;;;;;5044379;28;20028;-75
2022/03/11 05:03:07;;;;;;;13.30;10.80;;;6.80;99.80;;;;;;5044712;28;20083;-74
2022/03/11 05:05:39;;;;;;;15.40;9.30;;;6.80;99.90;;;;;;5045489;28;20056;-76
2022/03/11 05:08:23;;;;;;;15.15;9.27;;;6.70;99.90;;;;;;5045198;28;20272;-77
2022/03/11 05:10:59;;;;;;;10.45;9.27;;;6.70;99.90;;;;;;5045700;28;20041;-75
2022/03/11 05:13:34;;;;;;;14.38;10.00;;;6.70;99.90;;;;;;5059308;28;20515;-74
2022/03/11 05:16:20;;;;;;;16.38;10.13;;;6.70;99.90;;;;;;5059888;28;20033;-77
2022/03/11 05:18:47;;;;;;;10.90;8.98;;;6.70;99.80;;;;;;5047589;28;20028;-77
2022/03/11 05:21:13;;;;;;;11.43;8.98;;;6.80;99.50;;;;;;5048962;28;20024;-78
2022/03/11 05:23:42;;;;;;;14.52;10.02;;;6.80;99.40;;;;;;5046628;28;20021;-76
2022/03/11 05:26:29;;;;;;;9.95;8.25;;;6.70;99.40;;;;;;5044762;28;20025;-76
2022/03/11 05:28:58;;;;;;;13.43;9.20;;;6.80;99.20;;;;;;5043892;28;20024;-77
2022/03/11 05:32:03;;;;;;;14.40;9.75;;;6.80;99.10;;;;;;5045261;28;20025;-76
2022/03/11 05:34:39;;;;;;;12.82;10.23;;;6.80;99.10;;;;;;5044978;28;20342;-73
2022/03/11 05:37:06;;;;;;;10.93;8.27;;;6.90;99.10;;;;;;5059718;28;20025;-74
2022/03/11 05:39:33;;;;;;;12.70;9.98;;;6.90;98.70;;;;;;5048268;28;20502;-75
2022/03/11 05:41:59;;;;;;;20.58;10.10;;;6.90;98.70;;;;;;5047358;28;20025;-73
2022/03/11 05:44:25;;;;;;;14.60;9.82;;;6.90;98.60;;;;;;5048646;28;20123;-74
2022/03/11 05:46:55;;;;;;;16.25;10.25;;;6.90;98.50;;;;;;5046565;28;20078;-73
2022/03/11 05:49:22;;;;;;;13.95;10.07;;;7.00;98.50;;;;;;5048048;28;20036;-75
2022/03/11 05:51:48;;;;;;;18.23;10.00;;;6.90;98.60;;;;;;5045802;28;20021;-76
2022/03/11 05:54:14;;;;;;;11.35;8.60;;;6.90;98.60;;;;;;5047307;28;20033;-76
2022/03/11 05:56:40;;;;;;;13.27;10.40;;;6.90;98.70;;;;;;5046190;28;20021;-75
2022/03/11 05:59:06;;;;;;;14.68;10.85;;;6.90;98.50;;;;;;5047316;28;20121;-75
2022/03/11 06:01:32;;;;;;;20.00;11.23;;;6.90;98.50;;;;;;5051452;28;20023;-74
2022/03/11 06:04:00;;;;;;;11.82;9.18;;;7.00;98.70;;;;;;5050866;28;20017;-77
2022/03/11 06:06:27;;;;;;;10.80;9.30;;;7.00;98.50;;;;;;5051411;28;20021;-73
2022/03/11 06:08:53;;;;;;;17.75;11.10;;;7.00;98.50;;;;;;5050227;28;20021;-74
2022/03/11 06:11:22;;;;;;;12.25;8.90;;;7.00;98.70;;;;;;5051627;28;20071;-75
2022/03/11 06:13:48;;;;;;;14.88;9.48;;;7.00;98.40;;;;;;5059115;28;20025;-74
2022/03/11 06:16:13;;;;;;;22.63;10.07;;;7.00;98.60;;;;;;5050878;28;20033;-74
2022/03/11 06:18:39;;;;;;;13.27;9.85;;;7.00;98.50;;;;;;5045181;28;20044;-75
2022/03/11 06:21:05;;;;;;;13.55;8.60;;;6.90;98.30;;;;;;5041981;28;20036;-75
2022/03/11 06:23:32;;;;;;;10.45;8.93;;;7.00;98.20;;;;;;5040941;28;20427;-73
2022/03/11 06:25:58;;;;;;;28.40;9.32;;;6.90;98.30;;;;;;5037492;28;20111;-73
2022/03/11 06:28:24;;;;;;;13.35;8.02;;;6.90;98.10;;;;;;5035067;28;20112;-74
2022/03/11 06:30:51;;;;;;;18.45;9.52;;;6.90;98.30;;;;;;5040755;28;20108;-74
2022/03/11 06:33:16;;;;;;;12.05;9.48;;;6.90;98.20;;;;;;5039978;28;20032;-74
2022/03/11 06:35:42;;;;;;;11.13;8.80;;;6.90;98.10;;;;;;5042557;28;20099;-74
2022/03/11 06:38:08;;;;;;;13.65;9.77;;;6.90;98.10;;;;;;5042134;28;20112;-72
2022/03/11 06:40:34;;;;;;;12.05;8.52;;;6.90;98.20;;;;;;5040553;28;20025;-74
2022/03/11 06:42:59;;;;;;;15.43;9.68;;;7.00;98.20;;;;;;5036718;28;20071;-74
2022/03/11 06:45:25;;;;;;;11.07;8.57;;;7.00;98.00;;;;;;5044649;28;20078;-73
2022/03/11 06:47:51;;;;;;;20.13;9.35;;;6.90;98.00;;;;;;5045603;28;20116;-74
2022/03/11 06:50:18;;;;;;;13.10;9.07;;;6.90;98.20;;;;;;5046857;28;20028;-77
2022/03/11 06:52:45;;;;;;;13.55;9.85;;;6.90;98.10;;;;;;5037555;28;20130;-73
2022/03/11 06:55:11;;;;;;;15.05;9.00;;;6.90;97.60;;;;;;5042046;28;20509;-74
2022/03/11 06:57:37;;;;;;;17.52;9.90;;;6.90;97.90;;;;;;5043088;28;20025;-74
2022/03/11 07:00:05;;;;;;;16.75;10.23;;;7.00;98.00;;;;;;5045523;28;20035;-76
2022/03/11 07:02:31;;;;;;;15.80;9.20;;;7.10;98.10;;;;;;5045006;28;20479;-75
2022/03/11 07:04:57;;;;;;;10.35;8.48;;;7.20;97.90;;;;;;5040638;28;20056;-78
2022/03/11 07:07:23;;;;;;;14.48;10.02;;;7.30;97.50;;;;;;5042850;28;20029;-73
2022/03/11 07:09:50;;;;;;;10.73;7.32;;;7.40;97.50;;;;;;5039787;28;20048;-73
2022/03/11 07:12:16;;;;;;;11.77;8.50;;;7.30;97.00;;;;;;5043226;28;20406;-73
2022/03/11 07:14:43;;;;;;;13.48;8.13;;;7.10;97.40;;;;;;5038219;28;20033;-75
2022/03/11 07:17:09;;;;;;;12.82;9.32;;;7.10;97.30;;;;;;5040525;28;20025;-75
2022/03/11 07:19:35;;;;;;;11.98;8.55;;;7.10;97.70;;;;;;5048394;28;20061;-74
2022/03/11 07:22:04;;;;;;;13.90;8.45;;;7.30;97.20;;;;;;5039964;28;20049;-76
2022/03/11 07:24:30;;;;;;;19.50;13.00;;;7.30;97.30;;;;;;5046727;28;20074;-73
2022/03/11 07:26:56;;;;;;;10.98;8.43;;;7.30;97.10;;;;;;5042135;28;20029;-75
2022/03/11 07:29:21;;;;;;;11.95;9.73;;;7.30;96.80;;;;;;5040807;28;20021;-74
2022/03/11 07:31:47;;;;;;;15.25;8.07;;;7.30;96.90;;;;;;5044482;28;20021;-75
2022/03/11 07:34:14;;;;;;;11.95;7.95;;;7.30;96.60;;;;;;5044786;28;20452;-73
2022/03/11 07:36:40;;;;;;;13.15;7.45;;;7.30;96.40;;;;;;5051789;28;20047;-74
2022/03/11 07:39:07;;;;;;;10.50;7.97;;;7.20;96.10;;;;;;5050113;28;20029;-75
2022/03/11 07:41:34;;;;;;;10.40;7.30;;;7.00;96.10;;;;;;5048325;28;20471;-75
2022/03/11 07:44:01;;;;;;;9.43;7.40;;;7.10;96.40;;;;;;5065961;28;20036;-73
2022/03/11 07:46:29;;;;;;;15.15;7.60;;;7.00;96.30;;;;;;5074180;28;20033;-74
2022/03/11 07:48:56;;;;;;;13.07;7.97;;;7.10;96.20;;;;;;5060425;28;20035;-74
2022/03/11 07:51:22;;;;;;;9.65;7.82;;;7.10;96.40;;;;;;5059944;28;20032;-74
2022/03/11 07:53:48;;;;;;;14.25;8.75;;;7.20;96.30;;;;;;5052962;28;20056;-74
2022/03/11 07:56:15;;;;;;;14.40;9.45;;;7.30;96.30;;;;;;5070737;28;20424;-75
2022/03/11 07:58:42;;;;;;;15.77;7.95;;;7.30;96.10;;;;;;5089268;28;20039;-74
2022/03/11 08:01:08;;;;;;;10.57;7.65;;;7.20;96.30;;;;;;5074055;28;20151;-72
2022/03/11 08:03:38;;;;;;;11.05;9.15;;;7.30;96.30;;;;;;5063841;28;20199;-74
2022/03/11 08:06:05;;;;;;;10.75;8.43;;;7.30;95.80;;;;;;5059839;28;20043;-75
2022/03/11 08:08:43;;;;;;;10.48;7.95;;;7.30;95.70;;;;;;5071990;28;20024;-75
2022/03/11 08:11:16;;;;;;;11.98;7.85;;;7.30;95.90;;;;;;5048353;28;20108;-75
2022/03/11 08:13:46;;;;;;;14.45;8.50;;;7.30;95.70;;;;;;5035874;28;20018;-73
2022/03/11 08:16:13;;;;;;;24.33;10.43;;;7.40;96.00;;;;;;5048293;28;20525;-73
2022/03/11 08:18:43;;;;;;;9.23;6.38;;;7.50;96.00;;;;;;5052070;28;20394;-75
2022/03/11 08:21:18;;;;;;;12.13;8.80;;;7.60;95.80;;;;;;5050558;28;20109;-74
2022/03/11 08:23:44;;;;;;;10.50;7.50;;;7.60;95.90;;;;;;5052200;28;20025;-74
2022/03/11 08:26:13;;;;;;;15.73;9.93;;;7.60;95.80;;;;;;5053229;28;20025;-74
2022/03/11 08:28:43;;;;;;;12.60;8.82;;;7.70;95.80;;;;;;5053652;28;20029;-74
2022/03/11 08:31:09;;;;;;;14.15;8.45;;;7.70;95.80;;;;;;5052617;28;20035;-74
2022/03/11 08:33:37;;;;;;;15.50;9.07;;;7.60;95.90;;;;;;5053375;28;20119;-74
2022/03/11 08:36:03;;;;;;;13.55;9.20;;;7.60;96.10;;;;;;5050978;28;20364;-75
2022/03/11 08:38:29;;;;;;;16.38;9.48;;;7.60;95.90;;;;;;5049817;28;20033;-74
2022/03/11 08:41:00;;;;;;;14.70;9.32;;;7.70;95.90;;;;;;5050922;28;20068;-75
2022/03/11 08:43:26;;;;;;;18.50;8.02;;;7.70;96.00;;;;;;5035117;28;20116;-73
2022/03/11 08:45:52;;;;;;;9.05;7.80;;;7.80;96.00;;;;;;5048439;28;20100;-73
2022/03/11 08:48:17;;;;;;;9.25;7.60;;;7.80;95.90;;;;;;5051897;28;20033;-75
2022/03/11 08:50:43;;;;;;;13.05;9.30;;;8.00;96.00;;;;;;5056468;28;20025;-75
2022/03/11 08:53:09;;;;;;;15.82;8.95;;;8.10;96.00;;;;;;5067403;28;20053;-76
2022/03/11 08:55:37;;;;;;;13.65;9.30;;;8.20;96.00;;;;;;5045984;28;20048;-73
2022/03/11 08:58:04;;;;;;;12.65;9.52;;;8.20;96.00;;;;;;5047957;28;20025;-71
2022/03/11 09:00:30;;;;;;;13.95;9.68;;;8.20;95.90;;;;;;5051337;28;20426;-72
2022/03/11 09:02:55;;;;;;;12.57;10.00;;;8.20;95.60;;;;;;5052721;28;20112;-71
2022/03/11 09:05:21;;;;;;;13.00;8.57;;;8.00;95.70;;;;;;5052747;28;20129;-72
2022/03/11 09:07:49;;;;;;;14.40;9.27;;;7.90;96.00;;;;;;5051570;28;20017;-73
2022/03/11 09:10:18;;;;;;;11.90;9.25;;;7.90;96.00;;;;;;5052548;28;20017;-72
2022/03/11 09:12:45;;;;;;;17.23;9.52;;;7.90;95.70;;;;;;5052292;28;20024;-72
2022/03/11 09:15:11;;;;;;;19.00;9.55;;;7.90;96.10;;;;;;5048460;28;20044;-73
2022/03/11 09:17:58;;;;;;;10.75;8.43;;;8.10;97.00;;;;;;5038113;28;20171;-74
2022/03/11 09:20:55;;;;;;;20.90;9.98;;;8.20;96.10;;;;;;5045351;28;20025;-73
2022/03/11 09:23:23;;;;;;;13.68;9.82;;;8.20;96.40;;;;;;5047199;28;20064;-75
2022/03/11 09:25:50;;;;;;;10.50;7.65;;;8.40;97.30;;;;;;5056295;28;20037;-75
2022/03/11 09:28:16;;;;;;;14.18;8.93;;;8.60;96.00;;;;;;5055938;28;20093;-75
2022/03/11 09:30:42;;;;;;;13.10;8.52;;;8.50;95.40;;;;;;5054559;28;20029;-77
2022/03/11 09:33:08;;;;;;;15.15;11.70;;;8.40;95.50;;;;;;5058139;28;20092;-77
2022/03/11 09:35:35;;;;;;;10.27;9.18;;;8.40;96.00;;;;;;5053413;28;20040;-76
2022/03/11 09:38:01;;;;;;;12.93;9.20;;;8.40;95.40;;;;;;5050792;28;20047;-76
2022/03/11 09:40:27;;;;;;;12.15;9.27;;;8.40;95.50;;;;;;5044247;28;20483;-74
2022/03/11 09:43:10;;;;;;;15.90;8.88;;;8.50;95.70;;;;;;5044824;28;20125;-78
2022/03/11 09:45:38;;;;;;;12.45;8.85;;;8.40;95.20;;;;;;5046264;28;20026;-76
2022/03/11 09:48:04;;;;;;;14.88;10.52;;;8.40;95.90;;;;;;5034048;28;20021;-75
2022/03/11 09:50:30;;;;;;;14.05;9.80;;;8.50;95.60;;;;;;5043019;28;20021;-76
2022/03/11 09:52:57;;;;;;;13.80;9.70;;;8.70;95.60;;;;;;5038348;28;20557;-74
2022/03/11 09:55:24;;;;;;;17.85;10.30;;;8.80;95.60;;;;;;5051934;28;20032;-68
2022/03/11 09:57:50;;;;;;;12.15;9.82;;;8.90;95.80;;;;;;5048917;28;20074;-67
2022/03/11 10:00:16;;;;;;;15.02;10.32;;;8.70;95.10;;;;;;5040815;28;20018;-68
2022/03/11 10:02:53;;;;;;;17.08;11.02;;;8.70;95.30;;;;;;5040598;28;20525;-67
2022/03/11 10:05:48;;;;;;;13.80;10.95;;;8.70;95.30;;;;;;5044348;28;20394;-67
2022/03/11 10:08:38;;;;;;;13.98;10.43;;;8.60;95.50;;;;;;5048869;28;20383;-67
2022/03/11 10:11:28;;;;;;;13.52;11.00;;;8.60;95.80;;;;;;5047230;28;20025;-69
2022/03/11 10:14:08;;;;;;;19.38;11.77;;;8.40;95.20;;;;;;5047034;28;20032;-70
2022/03/11 10:16:35;;;;;;;15.55;10.95;;;8.20;95.50;;;;;;5039925;28;20114;-67
2022/03/11 10:19:08;;;;;;;15.93;10.00;;;8.30;96.00;;;;;;5044017;28;20017;-67
2022/03/11 10:21:43;;;;;;;11.57;10.10;;;8.30;95.80;;;;;;5045287;28;20029;-68
2022/03/11 10:24:10;;;;;;;19.40;11.18;;;8.20;95.90;;;;;;5043232;28;20108;-67
2022/03/11 10:26:54;;;;;;;15.43;10.90;;;8.30;96.00;;;;;;5039189;28;20024;-67
2022/03/11 10:29:34;;;;;;;16.33;11.13;;;8.30;96.50;;;;;;5044143;28;20096;-68
2022/03/11 10:32:03;;;;;;;19.33;11.38;;;8.30;96.50;;;;;;5046205;28;20075;-67
2022/03/11 10:34:42;;;;;;;14.75;11.48;;;8.20;96.30;;;;;;5037676;28;20025;-67
2022/03/11 10:37:12;;;;;;;15.18;11.65;;;8.20;96.60;;;;;;5040038;28;20252;-68
2022/03/11 10:39:43;;;;;;;16.52;13.02;;;8.40;96.60;;;;;;5036278;28;20116;-68
2022/03/11 10:42:23;;;;;;;16.17;12.82;;;8.40;96.80;;;;;;5039209;28;20385;-68
2022/03/11 10:44:58;;;;;;;18.63;11.38;;;8.50;96.50;;;;;;5044415;28;20356;-66
2022/03/11 10:47:38;;;;;;;14.95;9.77;;;8.30;96.00;;;;;;5044698;28;20021;-67
2022/03/11 10:50:11;;;;;;;15.13;12.38;;;8.30;96.40;;;;;;5045753;28;20352;-66
2022/03/11 10:52:45;;;;;;;19.52;11.77;;;8.40;96.60;;;;;;5040535;28;20041;-66
2022/03/11 10:55:31;;;;;;;14.40;12.00;;;8.50;96.30;;;;;;5038934;28;20208;-67
2022/03/11 10:58:01;;;;;;;18.55;12.35;;;8.50;96.10;;;;;;5042302;28;20033;-66
2022/03/11 11:00:28;;;;;;;19.48;13.45;;;8.40;96.50;;;;;;5049835;28;20428;-69
2022/03/11 11:03:01;;;;;;;14.40;11.80;;;8.20;96.30;;;;;;5042781;28;20032;-68
2022/03/11 11:05:28;;;;;;;17.40;10.75;;;8.30;96.70;;;;;;5041017;28;20021;-69
2022/03/11 11:07:58;;;;;;;16.02;12.77;;;8.40;96.50;;;;;;5045660;28;20020;-68
2022/03/11 11:10:28;;;;;;;21.20;13.27;;;8.50;96.20;;;;;;5050489;28;20021;-68
2022/03/11 11:12:54;;;;;;;25.27;13.07;;;8.50;96.40;;;;;;5043863;28;20471;-68
2022/03/11 11:15:21;;;;;;;13.63;11.13;;;8.60;96.50;;;;;;5044303;28;20025;-68
2022/03/11 11:17:50;;;;;;;17.48;11.38;;;8.60;96.50;;;;;;5044570;28;20025;-69
2022/03/11 11:20:19;;;;;;;20.17;11.70;;;8.60;96.60;;;;;;5045531;28;20047;-68
2022/03/11 11:22:47;;;;;;;21.13;12.15;;;8.60;96.20;;;;;;5047301;28;20499;-68
2022/03/11 11:25:15;;;;;;;19.98;13.45;;;8.40;96.30;;;;;;5049306;28;20312;-68
2022/03/11 11:27:42;;;;;;;18.35;13.48;;;8.50;96.60;;;;;;5043203;28;20117;-70
2022/03/11 11:30:09;;;;;;;23.48;13.63;;;8.60;96.50;;;;;;5055563;28;20086;-68
2022/03/11 11:32:38;;;;;;;21.23;13.45;;;8.70;96.60;;;;;;5062172;28;20130;-68
2022/03/11 11:35:37;;;;;;;19.90;12.88;;;8.90;96.60;;;;;;5055584;28;20475;-68
2022/03/11 11:38:07;;;;;;;20.73;13.20;;;8.90;96.60;;;;;;5049210;28;20445;-68
2022/03/11 11:40:45;;;;;;;15.00;11.90;;;8.90;96.10;;;;;;5045034;28;20025;-69
2022/03/11 11:43:13;;;;;;;15.88;13.00;;;8.80;96.00;;;;;;5058626;28;20052;-69
2022/03/11 11:45:52;;;;;;;15.88;11.65;;;8.70;96.50;;;;;;5057705;28;20024;-68
2022/03/11 11:48:33;;;;;;;29.08;14.02;;;8.70;96.50;;;;;;5052949;28;20025;-68
2022/03/11 11:51:08;;;;;;;19.85;13.10;;;8.80;96.70;;;;;;5046813;28;20074;-69
2022/03/11 11:53:42;;;;;;;16.38;13.43;;;8.90;96.70;;;;;;5048534;28;20372;-68
2022/03/11 11:56:26;;;;;;;24.45;13.55;;;9.00;96.70;;;;;;5055862;28;20025;-69
2022/03/11 11:58:52;;;;;;;19.23;12.88;;;9.10;96.80;;;;;;5050567;28;20104;-68
2022/03/11 12:01:44;;;;;;;19.77;12.95;;;9.20;96.40;;;;;;5048620;28;20162;-68
2022/03/11 12:04:28;;;;;;;17.50;13.43;;;9.00;96.10;;;;;;5050904;28;20025;-68
2022/03/11 12:07:09;;;;;;;16.33;13.07;;;9.10;96.60;;;;;;5044408;28;21062;-69
2022/03/11 12:09:41;;;;;;;25.48;13.98;;;9.10;96.80;;;;;;5060505;28;20024;-67
2022/03/11 12:12:34;;;;;;;25.65;16.38;;;9.10;96.50;;;;;;5050054;28;20116;-69
2022/03/11 12:15:00;;;;;;;21.75;14.68;;;9.10;97.00;;;;;;5030404;28;20037;-68
2022/03/11 12:17:52;;;;;;;29.60;15.23;;;9.10;96.60;;;;;;5047109;28;20036;-68
2022/03/11 12:20:35;;;;;;;21.20;14.80;;;8.90;96.50;;;;;;5045778;28;21595;-67
2022/03/11 12:23:13;;;;;;;18.17;13.35;;;9.00;97.10;;;;;;5043953;28;20021;-70
2022/03/11 12:25:46;;;;;;;23.15;16.88;;;9.10;96.40;;;;;;5050388;28;20040;-68
2022/03/11 12:28:28;;;;;;;31.65;15.88;;;9.10;96.70;;;;;;5051347;28;20066;-68
2022/03/11 12:30:59;;;;;;;22.95;13.93;;;9.30;96.60;;;;;;5056933;28;20198;-68
2022/03/11 12:33:33;;;;;;;16.98;14.07;;;9.30;96.20;;;;;;5045164;28;20102;-68
2022/03/11 12:36:00;;;;;;;21.88;14.05;;;9.30;96.50;;;;;;5040682;28;20021;-68
2022/03/11 12:38:34;;;;;;;25.17;14.93;;;9.40;96.20;;;;;;5045181;28;20036;-69
2022/03/11 12:41:06;;;;;;;17.77;13.65;;;9.40;96.10;;;;;;5047795;28;20040;-69
2022/03/11 12:43:32;;;;;;;28.75;15.18;;;9.40;96.10;;;;;;5038604;28;20025;-69
2022/03/11 12:45:58;;;;;;;24.23;14.90;;;9.50;96.10;;;;;;5046729;28;20194;-69
2022/03/11 12:48:27;;;;;;;20.15;14.57;;;9.50;95.70;;;;;;5039944;28;20057;-68
2022/03/11 12:50:53;;;;;;;26.30;14.07;;;9.50;95.90;;;;;;5044189;28;20057;-68